sensor_id;sensor_type;location;lat;lon;timestamp;temperature;humidity
58413;DHT22;44209;52.952;6.790;2023-04-01T00:00:54;10.30;99.90
58413;DHT22;44209;52.952;6.790;2023-04-01T00:03:21;10.30;99.90
58413;DHT22;44209;52.952;6.790;2023-04-01T00:05:47;10.30;99.90
58413;DHT22;44209;52.952;6.790;2023-04-01T00:08:13;10.30;99.90
58413;DHT22;44209;52.952;6.790;2023-04-01T00:10:38;10.30;99.90
58413;DHT22;44209;52.952;6.790;2023-04-01T00:13:04;10.30;99.90
58413;DHT22;44209;52.952;6.790;2023-04-01T00:15:31;10.30;99.90
58413;DHT22;44209;52.952;6.790;2023-04-01T00:17:56;10.30;99.90
58413;DHT22;44209;52.952;6.790;2023-04-01T00:20:22;10.30;99.90
58413;DHT22;44209;52.952;6.790;2023-04-01T00:22:48;10.30;99.90
58413;DHT22;44209;52.952;6.790;2023-04-01T00:25:14;10.30;99.90
58413;DHT22;44209;52.952;6.790;2023-04-01T00:27:40;10.30;99.90
58413;DHT22;44209;52.952;6.790;2023-04-01T00:30:07;10.30;99.90
58413;DHT22;44209;52.952;6.790;2023-04-01T00:32:34;10.30;99.90
58413;DHT22;44209;52.952;6.790;2023-04-01T00:34:59;10.30;99.90
58413;DHT22;44209;52.952;6.790;2023-04-01T00:37:26;10.30;99.90
58413;DHT22;44209;52.952;6.790;2023-04-01T00:39:52;10.30;99.90
58413;DHT22;44209;52.952;6.790;2023-04-01T00:42:18;10.30;99.90
58413;DHT22;44209;52.952;6.790;2023-04-01T00:44:54;10.20;99.90
58413;DHT22;44209;52.952;6.790;2023-04-01T00:47:21;10.30;99.90
58413;DHT22;44209;52.952;6.790;2023-04-01T00:49:51;10.30;99.90
58413;DHT22;44209;52.952;6.790;2023-04-01T00:52:19;10.20;99.90
58413;DHT22;44209;52.952;6.790;2023-04-01T00:54:50;10.30;99.90
58413;DHT22;44209;52.952;6.790;2023-04-01T00:57:36;10.20;99.90
58413;DHT22;44209;52.952;6.790;2023-04-01T01:00:07;10.20;99.90
58413;DHT22;44209;52.952;6.790;2023-04-01T01:02:35;10.20;99.90
58413;DHT22;44209;52.952;6.790;2023-04-01T01:05:00;10.20;99.90
58413;DHT22;44209;52.952;6.790;2023-04-01T01:24:13;10.20;99.90
58413;DHT22;44209;52.952;6.790;2023-04-01T01:33:02;10.20;99.90
58413;DHT22;44209;52.952;6.790;2023-04-01T01:35:52;10.20;99.90
58413;DHT22;44209;52.952;6.790;2023-04-01T01:38:26;10.20;99.90
58413;DHT22;44209;52.952;6.790;2023-04-01T01:40:52;10.10;99.90
58413;DHT22;44209;52.952;6.790;2023-04-01T01:43:24;10.20;99.90
58413;DHT22;44209;52.952;6.790;2023-04-01T01:45:59;10.20;99.90
58413;DHT22;44209;52.952;6.790;2023-04-01T01:48:27;10.20;99.90
58413;DHT22;44209;52.952;6.790;2023-04-01T01:50:55;10.20;99.90
58413;DHT22;44209;52.952;6.790;2023-04-01T01:53:21;10.20;99.90
58413;DHT22;44209;52.952;6.790;2023-04-01T01:55:47;10.20;99.90
58413;DHT22;44209;52.952;6.790;2023-04-01T01:58:23;10.20;99.90
58413;DHT22;44209;52.952;6.790;2023-04-01T02:01:01;10.20;99.90
58413;DHT22;44209;52.952;6.790;2023-04-01T02:03:30;10.10;99.90
58413;DHT22;44209;52.952;6.790;2023-04-01T02:05:59;10.10;99.90
58413;DHT22;44209;52.952;6.790;2023-04-01T02:08:36;10.10;99.90
58413;DHT22;44209;52.952;6.790;2023-04-01T02:11:12;10.10;99.90
58413;DHT22;44209;52.952;6.790;2023-04-01T02:13:49;10.10;99.90
58413;DHT22;44209;52.952;6.790;2023-04-01T02:16:40;10.10;99.90
58413;DHT22;44209;52.952;6.790;2023-04-01T02:19:10;10.00;99.90
58413;DHT22;44209;52.952;6.790;2023-04-01T02:21:38;10.00;99.90
58413;DHT22;44209;52.952;6.790;2023-04-01T02:24:08;10.00;99.90
58413;DHT22;44209;52.952;6.790;2023-04-01T02:26:35;10.00;99.90
58413;DHT22;44209;52.952;6.790;2023-04-01T02:29:01;10.00;99.90
58413;DHT22;44209;52.952;6.790;2023-04-01T02:31:29;10.10;99.90
58413;DHT22;44209;52.952;6.790;2023-04-01T02:33:56;10.10;99.90
58413;DHT22;44209;52.952;6.790;2023-04-01T02:36:22;10.10;99.90
58413;DHT22;44209;52.952;6.790;2023-04-01T02:38:49;10.10;99.90
58413;DHT22;44209;52.952;6.790;2023-04-01T02:41:16;10.10;99.90
58413;DHT22;44209;52.952;6.790;2023-04-01T02:43:42;10.00;99.90
58413;DHT22;44209;52.952;6.790;2023-04-01T02:46:08;10.10;99.90
58413;DHT22;44209;52.952;6.790;2023-04-01T02:48:33;10.10;99.90
58413;DHT22;44209;52.952;6.790;2023-04-01T02:51:00;10.10;99.90
58413;DHT22;44209;52.952;6.790;2023-04-01T02:53:26;10.10;99.90
58413;DHT22;44209;52.952;6.790;2023-04-01T02:55:52;10.10;99.90
58413;DHT22;44209;52.952;6.790;2023-04-01T02:58:18;10.10;99.90
58413;DHT22;44209;52.952;6.790;2023-04-01T03:00:44;10.10;99.90
58413;DHT22;44209;52.952;6.790;2023-04-01T03:03:10;10.10;99.90
58413;DHT22;44209;52.952;6.790;2023-04-01T03:05:35;10.10;99.90
58413;DHT22;44209;52.952;6.790;2023-04-01T03:08:02;10.10;99.90
58413;DHT22;44209;52.952;6.790;2023-04-01T03:10:28;10.10;99.90
58413;DHT22;44209;52.952;6.790;2023-04-01T03:12:53;10.10;99.90
58413;DHT22;44209;52.952;6.790;2023-04-01T03:15:19;10.10;99.90
58413;DHT22;44209;52.952;6.790;2023-04-01T03:17:45;10.10;99.90
58413;DHT22;44209;52.952;6.790;2023-04-01T03:20:12;10.10;99.90
58413;DHT22;44209;52.952;6.790;2023-04-01T03:22:38;10.10;99.90
58413;DHT22;44209;52.952;6.790;2023-04-01T03:25:05;10.10;99.90
58413;DHT22;44209;52.952;6.790;2023-04-01T03:27:33;10.10;99.90
58413;DHT22;44209;52.952;6.790;2023-04-01T03:29:59;10.10;99.90
58413;DHT22;44209;52.952;6.790;2023-04-01T03:32:25;10.10;99.90
58413;DHT22;44209;52.952;6.790;2023-04-01T03:34:52;10.10;99.90
58413;DHT22;44209;52.952;6.790;2023-04-01T03:37:18;10.10;99.90
58413;DHT22;44209;52.952;6.790;2023-04-01T03:39:43;10.10;99.90
58413;DHT22;44209;52.952;6.790;2023-04-01T03:42:09;10.10;99.90
58413;DHT22;44209;52.952;6.790;2023-04-01T03:44:35;10.10;99.90
58413;DHT22;44209;52.952;6.790;2023-04-01T03:47:01;10.10;99.90
58413;DHT22;44209;52.952;6.790;2023-04-01T03:49:27;10.10;99.90
58413;DHT22;44209;52.952;6.790;2023-04-01T03:51:52;10.10;99.90
58413;DHT22;44209;52.952;6.790;2023-04-01T03:54:18;10.10;99.90
58413;DHT22;44209;52.952;6.790;2023-04-01T03:56:45;10.10;99.90
58413;DHT22;44209;52.952;6.790;2023-04-01T03:59:12;10.10;99.90
58413;DHT22;44209;52.952;6.790;2023-04-01T04:01:38;10.10;99.90
58413;DHT22;44209;52.952;6.790;2023-04-01T04:04:04;10.10;99.90
58413;DHT22;44209;52.952;6.790;2023-04-01T04:06:30;10.10;99.90
58413;DHT22;44209;52.952;6.790;2023-04-01T04:08:56;10.10;99.90
58413;DHT22;44209;52.952;6.790;2023-04-01T04:11:23;10.10;99.90
58413;DHT22;44209;52.952;6.790;2023-04-01T04:13:48;10.10;99.90
58413;DHT22;44209;52.952;6.790;2023-04-01T04:16:15;10.10;99.90
58413;DHT22;44209;52.952;6.790;2023-04-01T04:18:42;10.10;99.90
58413;DHT22;44209;52.952;6.790;2023-04-01T04:21:12;10.10;99.90
58413;DHT22;44209;52.952;6.790;2023-04-01T04:23:38;10.10;99.90
58413;DHT22;44209;52.952;6.790;2023-04-01T04:26:07;10.00;99.90
58413;DHT22;44209;52.952;6.790;2023-04-01T04:28:33;10.10;99.90
58413;DHT22;44209;52.952;6.790;2023-04-01T04:30:59;10.10;99.90
58413;DHT22;44209;52.952;6.790;2023-04-01T04:33:26;10.10;99.90
58413;DHT22;44209;52.952;6.790;2023-04-01T04:35:55;10.10;99.90
58413;DHT22;44209;52.952;6.790;2023-04-01T04:38:21;10.10;99.90
58413;DHT22;44209;52.952;6.790;2023-04-01T04:40:47;10.10;99.90
58413;DHT22;44209;52.952;6.790;2023-04-01T04:43:14;10.00;99.90
58413;DHT22;44209;52.952;6.790;2023-04-01T04:45:41;10.00;99.90
58413;DHT22;44209;52.952;6.790;2023-04-01T04:48:14;10.00;99.90
58413;DHT22;44209;52.952;6.790;2023-04-01T04:50:44;10.00;99.90
58413;DHT22;44209;52.952;6.790;2023-04-01T04:53:14;10.00;99.90
58413;DHT22;44209;52.952;6.790;2023-04-01T04:55:48;10.00;99.90
58413;DHT22;44209;52.952;6.790;2023-04-01T04:58:14;10.00;99.90
58413;DHT22;44209;52.952;6.790;2023-04-01T05:00:40;10.00;99.90
58413;DHT22;44209;52.952;6.790;2023-04-01T05:03:07;10.00;99.90
58413;DHT22;44209;52.952;6.790;2023-04-01T05:05:33;10.00;99.90
58413;DHT22;44209;52.952;6.790;2023-04-01T05:07:59;10.00;99.90
58413;DHT22;44209;52.952;6.790;2023-04-01T05:10:24;10.00;99.90
58413;DHT22;44209;52.952;6.790;2023-04-01T05:12:50;10.00;99.90
58413;DHT22;44209;52.952;6.790;2023-04-01T05:15:16;10.00;99.90
58413;DHT22;44209;52.952;6.790;2023-04-01T05:17:42;10.00;99.90
58413;DHT22;44209;52.952;6.790;2023-04-01T05:20:08;9.90;99.90
58413;DHT22;44209;52.952;6.790;2023-04-01T05:22:34;9.90;99.90
58413;DHT22;44209;52.952;6.790;2023-04-01T05:24:59;9.90;99.90
58413;DHT22;44209;52.952;6.790;2023-04-01T05:27:25;9.90;99.90
58413;DHT22;44209;52.952;6.790;2023-04-01T05:29:51;9.90;99.90
58413;DHT22;44209;52.952;6.790;2023-04-01T05:32:17;9.90;99.90
58413;DHT22;44209;52.952;6.790;2023-04-01T05:34:42;9.90;99.90
58413;DHT22;44209;52.952;6.790;2023-04-01T05:37:08;9.90;99.90
58413;DHT22;44209;52.952;6.790;2023-04-01T05:39:38;9.90;99.90
58413;DHT22;44209;52.952;6.790;2023-04-01T05:42:08;9.90;99.90
58413;DHT22;44209;52.952;6.790;2023-04-01T05:44:35;9.90;99.90
58413;DHT22;44209;52.952;6.790;2023-04-01T05:47:02;9.80;99.90
58413;DHT22;44209;52.952;6.790;2023-04-01T05:49:28;9.80;99.90
58413;DHT22;44209;52.952;6.790;2023-04-01T05:51:54;9.80;99.90
58413;DHT22;44209;52.952;6.790;2023-04-01T05:54:20;9.80;99.90
58413;DHT22;44209;52.952;6.790;2023-04-01T05:56:46;9.80;99.90
58413;DHT22;44209;52.952;6.790;2023-04-01T05:59:12;9.80;99.90
58413;DHT22;44209;52.952;6.790;2023-04-01T06:01:38;9.80;99.90
58413;DHT22;44209;52.952;6.790;2023-04-01T06:04:04;9.80;99.90
58413;DHT22;44209;52.952;6.790;2023-04-01T06:06:31;9.80;99.90
58413;DHT22;44209;52.952;6.790;2023-04-01T06:09:07;9.80;99.90
58413;DHT22;44209;52.952;6.790;2023-04-01T06:11:42;9.80;99.90
58413;DHT22;44209;52.952;6.790;2023-04-01T06:14:19;9.80;99.90
58413;DHT22;44209;52.952;6.790;2023-04-01T06:17:08;9.80;99.90
58413;DHT22;44209;52.952;6.790;2023-04-01T06:30:42;9.90;99.90
58413;DHT22;44209;52.952;6.790;2023-04-01T06:46:44;10.10;99.90
58413;DHT22;44209;52.952;6.790;2023-04-01T06:57:42;10.10;99.90
58413;DHT22;44209;52.952;6.790;2023-04-01T07:00:21;10.20;99.90
58413;DHT22;44209;52.952;6.790;2023-04-01T07:02:53;10.20;99.90
58413;DHT22;44209;52.952;6.790;2023-04-01T07:05:21;10.20;99.90
58413;DHT22;44209;52.952;6.790;2023-04-01T07:07:50;10.20;99.90
58413;DHT22;44209;52.952;6.790;2023-04-01T07:13:18;10.30;99.90
58413;DHT22;44209;52.952;6.790;2023-04-01T07:15:59;10.30;99.90
58413;DHT22;44209;52.952;6.790;2023-04-01T07:18:36;10.30;99.90
58413;DHT22;44209;52.952;6.790;2023-04-01T07:21:03;10.40;99.90
58413;DHT22;44209;52.952;6.790;2023-04-01T07:23:36;10.40;99.90
58413;DHT22;44209;52.952;6.790;2023-04-01T07:26:20;10.40;99.90
58413;DHT22;44209;52.952;6.790;2023-04-01T07:28:48;10.40;99.90
58413;DHT22;44209;52.952;6.790;2023-04-01T07:37:06;10.60;99.90
58413;DHT22;44209;52.952;6.790;2023-04-01T07:44:55;10.80;99.90
58413;DHT22;44209;52.952;6.790;2023-04-01T07:47:34;10.80;99.90
58413;DHT22;44209;52.952;6.790;2023-04-01T07:53:16;10.80;99.90
58413;DHT22;44209;52.952;6.790;2023-04-01T08:01:30;10.80;99.90
58413;DHT22;44209;52.952;6.790;2023-04-01T08:04:23;10.90;99.90
58413;DHT22;44209;52.952;6.790;2023-04-01T08:12:13;10.80;99.90
58413;DHT22;44209;52.952;6.790;2023-04-01T08:15:10;10.90;99.90
58413;DHT22;44209;52.952;6.790;2023-04-01T08:20:50;10.90;99.90
58413;DHT22;44209;52.952;6.790;2023-04-01T08:23:22;11.00;99.90
58413;DHT22;44209;52.952;6.790;2023-04-01T08:29:00;10.90;99.90
58413;DHT22;44209;52.952;6.790;2023-04-01T08:33:57;11.00;99.90
58413;DHT22;44209;52.952;6.790;2023-04-01T08:36:34;11.00;99.90
58413;DHT22;44209;52.952;6.790;2023-04-01T08:39:07;10.90;99.90
58413;DHT22;44209;52.952;6.790;2023-04-01T09:07:02;11.10;99.90
58413;DHT22;44209;52.952;6.790;2023-04-01T09:15:58;11.20;99.90
58413;DHT22;44209;52.952;6.790;2023-04-01T09:18:36;11.20;99.90
58413;DHT22;44209;52.952;6.790;2023-04-01T09:26:45;11.30;99.90
58413;DHT22;44209;52.952;6.790;2023-04-01T09:48:19;11.40;99.90
58413;DHT22;44209;52.952;6.790;2023-04-01T10:16:22;11.40;99.90
58413;DHT22;44209;52.952;6.790;2023-04-01T10:47:57;10.60;99.90
58413;DHT22;44209;52.952;6.790;2023-04-01T11:21:22;10.30;99.90
58413;DHT22;44209;52.952;6.790;2023-04-01T11:24:24;10.30;99.90
58413;DHT22;44209;52.952;6.790;2023-04-01T11:27:07;10.30;99.90
58413;DHT22;44209;52.952;6.790;2023-04-01T11:29:53;10.30;99.90
58413;DHT22;44209;52.952;6.790;2023-04-01T11:32:51;10.20;99.90
58413;DHT22;44209;52.952;6.790;2023-04-01T11:38:53;10.10;99.90
58413;DHT22;44209;52.952;6.790;2023-04-01T11:41:49;10.00;99.90
58413;DHT22;44209;52.952;6.790;2023-04-01T11:44:24;10.00;99.90
58413;DHT22;44209;52.952;6.790;2023-04-01T11:46:56;10.00;99.90
58413;DHT22;44209;52.952;6.790;2023-04-01T11:55:23;9.90;99.90
58413;DHT22;44209;52.952;6.790;2023-04-01T11:58:29;9.90;99.90
58413;DHT22;44209;52.952;6.790;2023-04-01T12:01:20;9.90;99.90
58413;DHT22;44209;52.952;6.790;2023-04-01T12:04:21;10.00;99.90
58413;DHT22;44209;52.952;6.790;2023-04-01T12:25:55;10.10;99.90
58413;DHT22;44209;52.952;6.790;2023-04-01T12:28:44;10.10;99.90
58413;DHT22;44209;52.952;6.790;2023-04-01T12:34:18;10.00;99.90
58413;DHT22;44209;52.952;6.790;2023-04-01T12:40:05;10.00;99.90
58413;DHT22;44209;52.952;6.790;2023-04-01T12:42:44;9.90;99.90
58413;DHT22;44209;52.952;6.790;2023-04-01T12:45:31;9.90;99.90
58413;DHT22;44209;52.952;6.790;2023-04-01T12:48:11;9.80;99.90
58413;DHT22;44209;52.952;6.790;2023-04-01T13:02:28;9.60;99.90
58413;DHT22;44209;52.952;6.790;2023-04-01T13:10:30;9.60;99.90
58413;DHT22;44209;52.952;6.790;2023-04-01T13:15:54;9.60;99.90
58413;DHT22;44209;52.952;6.790;2023-04-01T13:18:53;9.60;99.90
58413;DHT22;44209;52.952;6.790;2023-04-01T13:24:21;9.60;99.90
58413;DHT22;44209;52.952;6.790;2023-04-01T13:27:01;9.50;99.90
58413;DHT22;44209;52.952;6.790;2023-04-01T13:29:36;9.50;99.90
58413;DHT22;44209;52.952;6.790;2023-04-01T13:32:36;9.40;99.90
58413;DHT22;44209;52.952;6.790;2023-04-01T13:38:00;9.50;99.90
58413;DHT22;44209;52.952;6.790;2023-04-01T13:43:19;9.40;99.90
58413;DHT22;44209;52.952;6.790;2023-04-01T14:13:48;9.10;99.90
58413;DHT22;44209;52.952;6.790;2023-04-01T14:19:24;9.10;99.90
58413;DHT22;44209;52.952;6.790;2023-04-01T14:24:45;9.10;99.90
58413;DHT22;44209;52.952;6.790;2023-04-01T14:32:56;9.10;99.90
58413;DHT22;44209;52.952;6.790;2023-04-01T14:38:36;9.10;99.90
58413;DHT22;44209;52.952;6.790;2023-04-01T14:43:47;9.10;99.90
58413;DHT22;44209;52.952;6.790;2023-04-01T14:49:30;9.10;99.90
58413;DHT22;44209;52.952;6.790;2023-04-01T14:52:17;9.10;99.90
58413;DHT22;44209;52.952;6.790;2023-04-01T14:54:49;9.00;99.90
58413;DHT22;44209;52.952;6.790;2023-04-01T14:57:20;9.00;99.90
58413;DHT22;44209;52.952;6.790;2023-04-01T15:00:16;9.00;99.90
58413;DHT22;44209;52.952;6.790;2023-04-01T15:08:20;9.10;99.90
58413;DHT22;44209;52.952;6.790;2023-04-01T15:13:18;9.10;99.90
58413;DHT22;44209;52.952;6.790;2023-04-01T15:21:50;9.00;99.90
58413;DHT22;44209;52.952;6.790;2023-04-01T15:35:33;9.00;99.90
58413;DHT22;44209;52.952;6.790;2023-04-01T15:38:29;9.00;99.90
58413;DHT22;44209;52.952;6.790;2023-04-01T15:41:14;9.00;99.90
58413;DHT22;44209;52.952;6.790;2023-04-01T15:43:46;8.90;99.90
58413;DHT22;44209;52.952;6.790;2023-04-01T15:52:06;8.80;99.90
58413;DHT22;44209;52.952;6.790;2023-04-01T15:57:50;8.80;99.90
58413;DHT22;44209;52.952;6.790;2023-04-01T16:00:27;8.80;99.90
58413;DHT22;44209;52.952;6.790;2023-04-01T16:14:13;8.60;99.90
58413;DHT22;44209;52.952;6.790;2023-04-01T16:22:12;8.50;99.90
58413;DHT22;44209;52.952;6.790;2023-04-01T16:27:36;8.40;99.90
58413;DHT22;44209;52.952;6.790;2023-04-01T16:30:38;8.40;99.90
58413;DHT22;44209;52.952;6.790;2023-04-01T16:36:42;8.30;99.90
58413;DHT22;44209;52.952;6.790;2023-04-01T16:44:54;8.10;99.90
58413;DHT22;44209;52.952;6.790;2023-04-01T16:50:21;8.00;99.90
58413;DHT22;44209;52.952;6.790;2023-04-01T16:52:59;8.00;99.90
58413;DHT22;44209;52.952;6.790;2023-04-01T16:55:50;7.90;99.90
58413;DHT22;44209;52.952;6.790;2023-04-01T16:58:33;7.90;99.90
58413;DHT22;44209;52.952;6.790;2023-04-01T17:01:07;7.80;99.90
58413;DHT22;44209;52.952;6.790;2023-04-01T17:03:46;7.80;99.90
58413;DHT22;44209;52.952;6.790;2023-04-01T17:12:13;7.70;99.90
58413;DHT22;44209;52.952;6.790;2023-04-01T17:21:01;7.60;99.90
58413;DHT22;44209;52.952;6.790;2023-04-01T17:23:43;7.50;99.90
58413;DHT22;44209;52.952;6.790;2023-04-01T17:28:57;7.50;99.90
58413;DHT22;44209;52.952;6.790;2023-04-01T17:37:01;7.40;99.90
58413;DHT22;44209;52.952;6.790;2023-04-01T17:44:54;7.10;99.90
58413;DHT22;44209;52.952;6.790;2023-04-01T17:50:13;7.00;99.90
58413;DHT22;44209;52.952;6.790;2023-04-01T17:53:11;7.00;99.90
58413;DHT22;44209;52.952;6.790;2023-04-01T17:56:00;7.00;99.90
58413;DHT22;44209;52.952;6.790;2023-04-01T18:01:17;6.90;99.90
58413;DHT22;44209;52.952;6.790;2023-04-01T18:15:05;6.80;99.90
58413;DHT22;44209;52.952;6.790;2023-04-01T18:20:28;6.70;99.90
58413;DHT22;44209;52.952;6.790;2023-04-01T18:23:21;6.70;99.90
58413;DHT22;44209;52.952;6.790;2023-04-01T18:25:52;6.70;99.90
58413;DHT22;44209;52.952;6.790;2023-04-01T18:39:30;6.60;99.90
58413;DHT22;44209;52.952;6.790;2023-04-01T18:45:17;6.50;99.90
58413;DHT22;44209;52.952;6.790;2023-04-01T18:48:02;6.60;99.90
58413;DHT22;44209;52.952;6.790;2023-04-01T18:50:47;6.50;99.90
58413;DHT22;44209;52.952;6.790;2023-04-01T18:56:06;6.50;99.90
58413;DHT22;44209;52.952;6.790;2023-04-01T18:58:34;6.50;99.90
58413;DHT22;44209;52.952;6.790;2023-04-01T19:01:27;6.50;99.90
58413;DHT22;44209;52.952;6.790;2023-04-01T19:06:54;6.50;99.90
58413;DHT22;44209;52.952;6.790;2023-04-01T19:09:32;6.50;99.90
58413;DHT22;44209;52.952;6.790;2023-04-01T19:14:52;6.50;99.90
58413;DHT22;44209;52.952;6.790;2023-04-01T19:20:40;6.40;99.90
58413;DHT22;44209;52.952;6.790;2023-04-01T19:26:27;6.40;99.90
58413;DHT22;44209;52.952;6.790;2023-04-01T19:37:19;6.40;99.90
58413;DHT22;44209;52.952;6.790;2023-04-01T19:43:11;6.40;99.90
58413;DHT22;44209;52.952;6.790;2023-04-01T19:45:47;6.30;99.90
58413;DHT22;44209;52.952;6.790;2023-04-01T19:48:26;6.30;99.90
58413;DHT22;44209;52.952;6.790;2023-04-01T19:51:09;6.30;99.90
58413;DHT22;44209;52.952;6.790;2023-04-01T19:56:23;6.30;99.90
58413;DHT22;44209;52.952;6.790;2023-04-01T19:59:12;6.30;99.90
58413;DHT22;44209;52.952;6.790;2023-04-01T20:01:46;6.20;99.90
58413;DHT22;44209;52.952;6.790;2023-04-01T20:04:31;6.20;99.90
58413;DHT22;44209;52.952;6.790;2023-04-01T20:09:48;6.20;99.90
58413;DHT22;44209;52.952;6.790;2023-04-01T20:18:24;6.20;99.90
58413;DHT22;44209;52.952;6.790;2023-04-01T20:21:18;6.10;99.90
58413;DHT22;44209;52.952;6.790;2023-04-01T20:26:42;6.10;99.90
58413;DHT22;44209;52.952;6.790;2023-04-01T20:36:15;6.00;99.90
58413;DHT22;44209;52.952;6.790;2023-04-01T20:40:49;6.00;99.90
58413;DHT22;44209;52.952;6.790;2023-04-01T20:51:22;5.90;99.90
58413;DHT22;44209;52.952;6.790;2023-04-01T21:08:36;5.80;99.90
58413;DHT22;44209;52.952;6.790;2023-04-01T21:11:08;5.80;99.90
58413;DHT22;44209;52.952;6.790;2023-04-01T21:19:41;5.70;99.90
58413;DHT22;44209;52.952;6.790;2023-04-01T21:33:08;5.60;99.90
58413;DHT22;44209;52.952;6.790;2023-04-01T21:38:42;5.60;99.90
58413;DHT22;44209;52.952;6.790;2023-04-01T21:58:03;5.50;99.90
58413;DHT22;44209;52.952;6.790;2023-04-01T22:01:38;5.50;99.90
58413;DHT22;44209;52.952;6.790;2023-04-01T22:11:37;5.40;99.90
58413;DHT22;44209;52.952;6.790;2023-04-01T22:17:18;5.50;99.90
58413;DHT22;44209;52.952;6.790;2023-04-01T22:23:07;5.40;99.90
58413;DHT22;44209;52.952;6.790;2023-04-01T22:25:42;5.40;99.90
58413;DHT22;44209;52.952;6.790;2023-04-01T22:28:10;5.40;99.90
58413;DHT22;44209;52.952;6.790;2023-04-01T22:30:52;5.30;99.90
58413;DHT22;44209;52.952;6.790;2023-04-01T22:33:29;5.30;99.90
58413;DHT22;44209;52.952;6.790;2023-04-01T22:38:59;5.30;99.90
58413;DHT22;44209;52.952;6.790;2023-04-01T22:52:42;5.00;99.90
58413;DHT22;44209;52.952;6.790;2023-04-01T22:57:58;5.00;99.90
58413;DHT22;44209;52.952;6.790;2023-04-01T23:01:11;4.90;99.90
58413;DHT22;44209;52.952;6.790;2023-04-01T23:03:33;4.90;99.90
58413;DHT22;44209;52.952;6.790;2023-04-01T23:06:02;4.90;99.90
58413;DHT22;44209;52.952;6.790;2023-04-01T23:11:41;4.80;99.90
58413;DHT22;44209;52.952;6.790;2023-04-01T23:19:49;4.80;99.90
58413;DHT22;44209;52.952;6.790;2023-04-01T23:33:21;4.70;99.90
58413;DHT22;44209;52.952;6.790;2023-04-01T23:35:52;4.70;99.90
58413;DHT22;44209;52.952;6.790;2023-04-01T23:38:20;4.60;99.90
58413;DHT22;44209;52.952;6.790;2023-04-01T23:40:51;4.60;99.90
58413;DHT22;44209;52.952;6.790;2023-04-01T23:43:39;4.60;99.90
58413;DHT22;44209;52.952;6.790;2023-04-01T23:46:07;4.60;99.90
58413;DHT22;44209;52.952;6.790;2023-04-01T23:48:40;4.50;99.90
58413;DHT22;44209;52.952;6.790;2023-04-01T23:53:48;4.50;99.90
58413;DHT22;44209;52.952;6.790;2023-04-01T23:56:21;4.50;99.90
58413;DHT22;44209;52.952;6.790;2023-04-01T23:58:49;4.50;99.90
